createdAt,value
2022-11-05T00:00:50.504Z,980.274
2022-11-05T00:02:49.894Z,980.316
2022-11-05T00:04:49.846Z,980.305
2022-11-05T00:06:50.695Z,980.250
2022-11-05T00:08:50.181Z,980.247
2022-11-05T00:10:50.512Z,980.228
2022-11-05T00:12:50.000Z,980.262
2022-11-05T00:14:50.502Z,980.264
2022-11-05T00:16:50.444Z,980.322
2022-11-05T00:18:49.867Z,980.330
2022-11-05T00:20:50.322Z,980.393
2022-11-05T00:22:50.801Z,980.397
2022-11-05T00:24:50.147Z,980.441
2022-11-05T00:26:50.035Z,980.516
2022-11-05T00:28:50.416Z,980.516
2022-11-05T00:30:50.002Z,980.585
2022-11-05T00:32:50.450Z,980.557
2022-11-05T00:34:50.425Z,980.613
2022-11-05T00:36:50.370Z,980.609
2022-11-05T00:38:49.878Z,980.599
2022-11-05T00:40:50.382Z,980.655
2022-11-05T00:42:49.934Z,980.655
2022-11-05T00:44:50.364Z,980.720
2022-11-05T00:46:50.300Z,980.702
2022-11-05T00:48:50.244Z,980.756
2022-11-05T00:50:50.764Z,980.730
2022-11-05T00:52:50.166Z,980.739
2022-11-05T00:54:50.652Z,980.729
2022-11-05T00:56:50.347Z,980.776
2022-11-05T00:58:50.786Z,980.785
2022-11-05T01:00:50.150Z,980.779
2022-11-05T01:02:51.387Z,980.829
2022-11-05T01:04:50.016Z,980.874
2022-11-05T01:06:49.879Z,980.867
2022-11-05T01:08:50.248Z,980.924
2022-11-05T01:10:50.718Z,980.903
2022-11-05T01:12:50.110Z,980.943
2022-11-05T01:14:50.552Z,981.005
2022-11-05T01:16:50.469Z,981.040
2022-11-05T01:18:49.871Z,980.999
2022-11-05T01:20:50.344Z,981.021
2022-11-05T01:22:50.709Z,981.018
2022-11-05T01:24:50.330Z,981.022
2022-11-05T01:26:50.125Z,981.028
2022-11-05T01:28:50.860Z,980.990
2022-11-05T01:30:50.495Z,981.024
2022-11-05T01:32:50.076Z,981.053
2022-11-05T01:34:50.038Z,981.057
2022-11-05T01:36:49.831Z,981.072
2022-11-05T01:38:50.271Z,981.129
2022-11-05T01:40:50.710Z,981.193
2022-11-05T01:42:50.308Z,981.242
2022-11-05T01:44:50.775Z,981.234
2022-11-05T01:46:50.639Z,981.258
2022-11-05T01:48:50.103Z,981.311
2022-11-05T01:50:50.703Z,981.270
2022-11-05T01:52:50.180Z,981.274
2022-11-05T01:54:50.672Z,981.307
2022-11-05T01:56:50.434Z,981.350
2022-11-05T01:58:49.947Z,981.341
2022-11-05T02:00:50.374Z,981.354
2022-11-05T02:02:50.720Z,981.365
2022-11-05T02:04:50.100Z,981.379
2022-11-05T02:06:49.828Z,981.390
2022-11-05T02:08:50.270Z,981.417
2022-11-05T02:10:50.690Z,981.382
2022-11-05T02:12:50.081Z,981.375
2022-11-05T02:14:50.409Z,981.394
2022-11-05T02:16:50.219Z,981.393
2022-11-05T02:18:50.663Z,981.389
2022-11-05T02:20:52.711Z,981.416
2022-11-05T02:22:50.135Z,981.471
2022-11-05T02:24:50.723Z,981.491
2022-11-05T02:26:50.622Z,981.505
2022-11-05T02:28:50.107Z,981.488
2022-11-05T02:30:50.511Z,981.489
2022-11-05T02:32:50.039Z,981.489
2022-11-05T02:34:50.063Z,981.547
2022-11-05T02:36:49.836Z,981.589
2022-11-05T02:38:50.204Z,981.599
2022-11-05T02:40:50.716Z,981.601
2022-11-05T02:42:50.083Z,981.644
2022-11-05T02:44:50.687Z,981.628
2022-11-05T02:46:50.611Z,981.675
2022-11-05T02:48:50.158Z,981.705
2022-11-05T02:50:50.594Z,981.750
2022-11-05T02:52:50.124Z,981.742
2022-11-05T02:54:50.439Z,981.807
2022-11-05T02:56:50.301Z,981.808
2022-11-05T02:58:50.772Z,981.816
2022-11-05T03:00:50.201Z,981.813
2022-11-05T03:02:51.337Z,981.783
2022-11-05T03:04:50.556Z,981.752
2022-11-05T03:06:50.400Z,981.705
2022-11-05T03:08:50.498Z,981.685
2022-11-05T03:10:49.874Z,981.675
2022-11-05T03:12:50.375Z,981.658
2022-11-05T03:14:50.723Z,981.689
2022-11-05T03:16:50.585Z,981.722
2022-11-05T03:18:49.953Z,981.757
2022-11-05T03:20:50.327Z,981.736
2022-11-05T03:22:49.843Z,981.752
2022-11-05T03:24:50.239Z,981.759
2022-11-05T03:26:50.210Z,981.738
2022-11-05T03:28:50.602Z,981.754
2022-11-05T03:30:50.180Z,981.754
2022-11-05T03:32:50.534Z,981.786
2022-11-05T03:34:50.088Z,981.802
2022-11-05T03:36:50.812Z,981.791
2022-11-05T03:38:50.231Z,981.801
2022-11-05T03:40:50.637Z,981.851
2022-11-05T03:42:50.087Z,981.821
2022-11-05T03:44:50.519Z,981.818
2022-11-05T03:46:50.264Z,981.833
2022-11-05T03:48:51.069Z,981.869
2022-11-05T03:50:50.801Z,981.855
2022-11-05T03:52:50.305Z,981.917
2022-11-05T03:54:50.688Z,981.968
2022-11-05T03:56:50.591Z,982.008
2022-11-05T03:58:59.364Z,982.023
2022-11-05T04:00:50.776Z,982.051
2022-11-05T04:02:50.765Z,982.065
2022-11-05T04:04:50.308Z,982.076
2022-11-05T04:06:50.411Z,982.099
2022-11-05T04:08:49.796Z,982.062
2022-11-05T04:10:50.343Z,982.093
2022-11-05T04:12:49.812Z,982.105
2022-11-05T04:14:50.228Z,982.109
2022-11-05T04:16:49.956Z,982.108
2022-11-05T04:18:50.374Z,982.087
2022-11-05T04:20:50.720Z,982.080
2022-11-05T04:22:50.314Z,982.054
2022-11-05T04:24:50.744Z,982.086
2022-11-05T04:26:50.527Z,982.105
2022-11-05T04:28:49.926Z,982.121
2022-11-05T04:30:50.469Z,982.176
2022-11-05T04:32:49.902Z,982.176
2022-11-05T04:34:49.948Z,982.208
2022-11-05T04:36:50.559Z,982.208
2022-11-05T04:38:50.139Z,982.232
2022-11-05T04:40:50.570Z,982.227
2022-11-05T04:42:50.132Z,982.245
2022-11-05T04:44:50.694Z,982.211
2022-11-05T04:46:50.569Z,982.186
2022-11-05T04:48:49.991Z,982.217
2022-11-05T04:50:50.460Z,982.244
2022-11-05T04:52:49.906Z,982.304
2022-11-05T04:54:50.300Z,982.339
2022-11-05T04:56:50.168Z,982.381
2022-11-05T04:58:50.577Z,982.416
2022-11-05T05:00:50.414Z,982.468
2022-11-05T05:02:50.056Z,982.459
2022-11-05T05:04:50.040Z,982.487
2022-11-05T05:06:49.806Z,982.532
2022-11-05T05:08:50.494Z,982.608
2022-11-05T05:10:49.850Z,982.608
2022-11-05T05:12:50.322Z,982.595
2022-11-05T05:14:50.746Z,982.606
2022-11-05T05:16:50.422Z,982.680
2022-11-05T05:18:49.957Z,982.667
2022-11-05T05:20:50.455Z,982.687
2022-11-05T05:22:49.952Z,982.716
2022-11-05T05:24:53.436Z,982.743
2022-11-05T05:26:50.401Z,982.819
2022-11-05T05:28:49.816Z,982.853
2022-11-05T05:30:58.950Z,982.910
2022-11-05T05:32:50.406Z,982.918
2022-11-05T05:34:50.524Z,982.935
2022-11-05T05:36:50.258Z,982.921
2022-11-05T05:38:50.709Z,982.969
2022-11-05T05:40:50.139Z,983.019
2022-11-05T05:42:50.599Z,983.078
2022-11-05T05:44:50.069Z,983.118
2022-11-05T05:46:49.834Z,983.170
2022-11-05T05:48:50.362Z,983.192
2022-11-05T05:50:49.845Z,983.186
2022-11-05T05:52:50.484Z,983.220
2022-11-05T05:54:49.956Z,983.288
2022-11-05T05:56:49.921Z,983.298
2022-11-05T05:58:50.309Z,983.296
2022-11-05T06:00:49.788Z,983.296
2022-11-05T06:02:50.611Z,983.354
2022-11-05T06:04:50.774Z,983.316
2022-11-05T06:06:50.565Z,983.341
2022-11-05T06:08:50.018Z,983.375
2022-11-05T06:10:50.801Z,983.410
2022-11-05T06:12:50.402Z,983.426
2022-11-05T06:14:49.964Z,983.433
2022-11-05T06:16:49.791Z,983.456
2022-11-05T06:18:50.335Z,983.461
2022-11-05T06:20:49.837Z,983.544
2022-11-05T06:22:50.379Z,983.513
2022-11-05T06:24:49.870Z,983.564
2022-11-05T06:26:50.631Z,983.584
2022-11-05T06:28:50.094Z,983.627
2022-11-05T06:30:50.568Z,983.671
2022-11-05T06:32:50.029Z,983.715
2022-11-05T06:34:50.053Z,983.739
2022-11-05T06:36:49.829Z,983.721
2022-11-05T06:38:50.237Z,983.681
2022-11-05T06:40:50.697Z,983.684
2022-11-05T06:42:50.267Z,983.690
2022-11-05T06:44:50.781Z,983.690
2022-11-05T06:46:50.574Z,983.717
2022-11-05T06:48:49.972Z,983.767
2022-11-05T06:50:50.373Z,983.766
2022-11-05T06:52:49.878Z,983.867
2022-11-05T06:54:50.205Z,983.919
2022-11-05T06:56:50.093Z,983.958
2022-11-05T06:58:50.533Z,983.982
2022-11-05T07:00:50.490Z,983.986
2022-11-05T07:02:50.211Z,983.998
2022-11-05T07:04:50.253Z,984.026
2022-11-05T07:06:49.940Z,984.016
2022-11-05T07:08:50.508Z,984.016
2022-11-05T07:10:50.001Z,984.064
2022-11-05T07:12:50.550Z,984.083
2022-11-05T07:14:50.063Z,984.093
2022-11-05T07:16:49.942Z,984.131
2022-11-05T07:18:50.418Z,984.129
2022-11-05T07:20:49.981Z,984.200
2022-11-05T07:22:50.427Z,984.244
2022-11-05T07:24:50.014Z,984.238
2022-11-05T07:26:49.804Z,984.297
2022-11-05T07:28:50.367Z,984.298
2022-11-05T07:30:50.757Z,984.356
2022-11-05T07:32:50.273Z,984.396
2022-11-05T07:34:50.243Z,984.413
2022-11-05T07:36:50.122Z,984.442
2022-11-05T07:38:50.648Z,984.480
2022-11-05T07:40:50.367Z,984.522
2022-11-05T07:42:49.814Z,984.520
2022-11-05T07:44:50.287Z,984.546
2022-11-05T07:46:50.227Z,984.594
2022-11-05T07:48:50.784Z,984.613
2022-11-05T07:50:50.200Z,984.627
2022-11-05T07:52:50.691Z,984.597
2022-11-05T07:54:50.078Z,984.630
2022-11-05T07:56:49.825Z,984.634
2022-11-05T07:58:50.287Z,984.694
2022-11-05T08:00:50.972Z,984.691
2022-11-05T08:02:50.821Z,984.729
2022-11-05T08:04:50.595Z,984.738
2022-11-05T08:06:50.340Z,984.764
2022-11-05T08:08:49.802Z,984.761
2022-11-05T08:10:50.200Z,984.754
2022-11-05T08:12:50.582Z,984.742
2022-11-05T08:14:50.003Z,984.754
2022-11-05T08:16:49.881Z,984.814
2022-11-05T08:18:50.304Z,984.775
2022-11-05T08:20:50.727Z,984.861
2022-11-05T08:22:50.164Z,984.850
2022-11-05T08:24:50.630Z,984.866
2022-11-05T08:26:50.526Z,984.918
2022-11-05T08:28:50.035Z,984.927
2022-11-05T08:30:50.518Z,984.968
2022-11-05T08:32:49.912Z,985.024
2022-11-05T08:34:50.751Z,985.079
2022-11-05T08:36:50.448Z,985.069
2022-11-05T08:38:49.997Z,985.069
2022-11-05T08:40:50.331Z,985.133
2022-11-05T08:42:50.803Z,985.156
2022-11-05T08:44:50.275Z,985.136
2022-11-05T08:46:50.031Z,985.190
2022-11-05T08:48:50.392Z,985.209
2022-11-05T08:50:49.834Z,985.223
2022-11-05T08:52:50.291Z,985.154
2022-11-05T08:54:50.805Z,985.176
2022-11-05T08:56:50.615Z,985.211
2022-11-05T08:58:50.008Z,985.236
2022-11-05T09:00:50.911Z,985.271
2022-11-05T09:02:50.566Z,985.270
2022-11-05T09:04:50.683Z,985.299
2022-11-05T09:06:50.568Z,985.269
2022-11-05T09:08:50.092Z,985.219
2022-11-05T09:10:50.537Z,985.268
2022-11-05T09:12:49.993Z,985.273
2022-11-05T09:14:50.443Z,985.258
2022-11-05T09:16:50.383Z,985.260
2022-11-05T09:18:50.741Z,985.286
2022-11-05T09:20:50.121Z,985.284
2022-11-05T09:22:50.567Z,985.304
2022-11-05T09:24:49.846Z,985.335
2022-11-05T09:26:50.740Z,985.338
2022-11-05T09:28:50.190Z,985.314
2022-11-05T09:30:49.900Z,985.304
2022-11-05T09:32:50.422Z,985.307
2022-11-05T09:34:50.402Z,985.291
2022-11-05T09:36:50.288Z,985.298
2022-11-05T09:38:49.936Z,985.309
2022-11-05T09:40:50.457Z,985.398
2022-11-05T09:42:50.084Z,985.398
2022-11-05T09:44:50.518Z,985.419
2022-11-05T09:46:50.360Z,985.420
2022-11-05T09:48:50.748Z,985.401
2022-11-05T09:50:50.355Z,985.452
2022-11-05T09:52:49.820Z,985.462
2022-11-05T09:54:50.364Z,985.452
2022-11-05T09:56:50.101Z,985.442
2022-11-05T09:58:50.478Z,985.468
2022-11-05T10:00:50.199Z,985.496
2022-11-05T10:02:49.809Z,985.551
2022-11-05T10:04:50.948Z,985.581
2022-11-05T10:06:49.885Z,985.586
2022-11-05T10:08:50.258Z,985.610
2022-11-05T10:10:50.660Z,985.615
2022-11-05T10:12:50.138Z,985.639
2022-11-05T10:14:50.518Z,985.629
2022-11-05T10:16:50.336Z,985.650
2022-11-05T10:18:50.696Z,985.625
2022-11-05T10:20:50.278Z,985.583
2022-11-05T10:22:50.623Z,985.653
2022-11-05T10:24:50.072Z,985.650
2022-11-05T10:26:50.760Z,985.694
2022-11-05T10:28:50.344Z,985.710
2022-11-05T10:30:49.891Z,985.731
2022-11-05T10:32:50.621Z,985.769
2022-11-05T10:34:50.613Z,985.794
2022-11-05T10:36:50.585Z,985.779
2022-11-05T10:38:50.104Z,985.789
2022-11-05T10:40:50.776Z,985.828
2022-11-05T10:42:50.225Z,985.843
2022-11-05T10:44:49.825Z,985.867
2022-11-05T10:46:50.722Z,985.874
2022-11-05T10:48:50.330Z,985.862
2022-11-05T10:50:49.876Z,985.876
2022-11-05T10:52:50.560Z,985.871
2022-11-05T10:54:50.061Z,985.860
2022-11-05T10:56:50.059Z,985.878
2022-11-05T10:58:50.788Z,985.879
2022-11-05T11:00:50.567Z,985.949
2022-11-05T11:02:50.269Z,985.983
2022-11-05T11:04:50.360Z,985.924
2022-11-05T11:06:50.313Z,985.914
2022-11-05T11:08:49.839Z,985.935
2022-11-05T11:10:50.444Z,985.925
2022-11-05T11:12:49.952Z,985.928
2022-11-05T11:14:50.483Z,985.960
2022-11-05T11:16:50.388Z,985.880
2022-11-05T11:18:49.956Z,985.876
2022-11-05T11:20:50.501Z,985.878
2022-11-05T11:22:49.961Z,985.915
2022-11-05T11:24:50.518Z,985.878
2022-11-05T11:26:50.415Z,985.920
2022-11-05T11:28:49.936Z,985.868
2022-11-05T11:30:50.483Z,985.964
2022-11-05T11:32:50.061Z,985.967
2022-11-05T11:34:50.084Z,985.931
2022-11-05T11:36:50.071Z,985.906
2022-11-05T11:38:50.681Z,985.914
2022-11-05T11:40:50.111Z,985.920
2022-11-05T11:42:50.609Z,985.939
2022-11-05T11:44:50.120Z,985.917
2022-11-05T11:46:49.963Z,985.948
2022-11-05T11:48:50.421Z,985.966
2022-11-05T11:50:49.979Z,985.955
2022-11-05T11:52:50.563Z,985.959
2022-11-05T11:54:50.213Z,985.950
2022-11-05T11:56:50.116Z,986.011
2022-11-05T11:58:50.662Z,985.975
2022-11-05T12:00:50.101Z,986.057
2022-11-05T12:02:50.969Z,986.031
2022-11-05T12:04:50.195Z,986.020
2022-11-05T12:06:50.081Z,986.031
2022-11-05T12:09:07.051Z,986.063
2022-11-05T12:10:50.053Z,986.010
2022-11-05T12:12:50.605Z,986.006
2022-11-05T12:14:50.092Z,986.035
2022-11-05T12:16:49.861Z,985.997
2022-11-05T12:18:50.497Z,985.986
2022-11-05T12:20:58.619Z,985.941
2022-11-05T12:22:50.215Z,985.977
2022-11-05T12:24:50.603Z,985.970
2022-11-05T12:26:50.095Z,985.937
2022-11-05T12:29:18.678Z,985.912
2022-11-05T12:30:50.622Z,985.926
2022-11-05T12:32:50.553Z,985.964
2022-11-05T12:34:50.812Z,985.954
2022-11-05T12:36:50.643Z,985.964
2022-11-05T12:38:50.179Z,985.973
2022-11-05T12:40:50.769Z,985.915
2022-11-05T12:42:50.292Z,985.943
2022-11-05T12:44:50.853Z,985.939
2022-11-05T12:46:50.639Z,985.942
2022-11-05T12:48:50.111Z,985.957
2022-11-05T12:50:50.524Z,985.957
2022-11-05T12:52:49.989Z,985.948
2022-11-05T12:54:50.402Z,985.971
2022-11-05T12:56:50.248Z,985.940
2022-11-05T12:58:50.624Z,986.015
2022-11-05T13:00:50.178Z,985.985
2022-11-05T13:02:49.961Z,985.999
2022-11-05T13:04:49.850Z,986.002
2022-11-05T13:06:50.667Z,985.997
2022-11-05T13:08:50.090Z,986.025
2022-11-05T13:10:50.528Z,986.047
2022-11-05T13:12:49.983Z,986.059
2022-11-05T13:14:50.504Z,986.076
2022-11-05T13:16:50.250Z,986.078
2022-11-05T13:18:50.752Z,986.074
2022-11-05T13:20:50.129Z,986.115
2022-11-05T13:22:50.566Z,986.117
2022-11-05T13:24:49.996Z,986.157
2022-11-05T13:26:50.666Z,986.145
2022-11-05T13:28:50.055Z,986.158
2022-11-05T13:30:50.555Z,986.208
2022-11-05T13:32:49.911Z,986.169
2022-11-05T13:34:50.699Z,986.159
2022-11-05T13:36:50.401Z,986.185
2022-11-05T13:38:50.752Z,986.185
2022-11-05T13:40:50.213Z,986.202
2022-11-05T13:42:50.606Z,986.182
2022-11-05T13:44:50.052Z,986.182
2022-11-05T13:46:50.014Z,986.190
2022-11-05T13:48:50.467Z,986.170
2022-11-05T13:50:50.801Z,986.229
2022-11-05T13:52:50.285Z,986.195
2022-11-05T13:54:50.682Z,986.205
2022-11-05T13:56:50.410Z,986.172
2022-11-05T13:58:49.815Z,986.212
2022-11-05T14:00:50.331Z,986.204
2022-11-05T14:02:50.704Z,986.226
2022-11-05T14:04:50.705Z,986.251
2022-11-05T14:06:50.593Z,986.224
2022-11-05T14:08:50.077Z,986.236
2022-11-05T14:10:50.536Z,986.263
2022-11-05T14:12:50.035Z,986.277
2022-11-05T14:14:59.350Z,986.256
2022-11-05T14:16:50.179Z,986.256
2022-11-05T14:18:50.618Z,986.295
2022-11-05T14:20:50.053Z,986.266
2022-11-05T14:22:50.478Z,986.270
2022-11-05T14:24:49.859Z,986.259
2022-11-05T14:26:50.537Z,986.265
2022-11-05T14:28:49.951Z,986.332
2022-11-05T14:30:50.443Z,986.292
2022-11-05T14:32:49.829Z,986.315
2022-11-05T14:34:50.793Z,986.360
2022-11-05T14:36:50.742Z,986.410
2022-11-05T14:38:50.174Z,986.392
2022-11-05T14:40:50.569Z,986.393
2022-11-05T14:42:49.984Z,986.421
2022-11-05T14:44:50.351Z,986.421
2022-11-05T14:46:50.239Z,986.437
2022-11-05T14:48:50.579Z,986.468
2022-11-05T14:50:50.092Z,986.487
2022-11-05T14:52:50.552Z,986.551
2022-11-05T14:54:50.054Z,986.530
2022-11-05T14:56:56.939Z,986.522
2022-11-05T14:58:50.427Z,986.558
2022-11-05T15:00:49.874Z,986.590
2022-11-05T15:02:50.353Z,986.683
2022-11-05T15:04:50.405Z,986.718
2022-11-05T15:06:50.167Z,986.731
2022-11-05T15:08:50.668Z,986.718
2022-11-05T15:10:50.101Z,986.728
2022-11-05T15:12:50.581Z,986.777
2022-11-05T15:14:50.250Z,986.802
2022-11-05T15:16:50.270Z,986.748
2022-11-05T15:18:50.768Z,986.706
2022-11-05T15:20:50.284Z,986.731
2022-11-05T15:22:50.791Z,986.717
2022-11-05T15:24:50.248Z,986.697
2022-11-05T15:26:50.113Z,986.733
2022-11-05T15:28:50.567Z,986.750
2022-11-05T15:30:50.045Z,986.748
2022-11-05T15:32:50.542Z,986.797
2022-11-05T15:34:50.490Z,986.785
2022-11-05T15:36:50.349Z,986.800
2022-11-05T15:39:28.287Z,986.854
2022-11-05T15:40:49.986Z,986.883
2022-11-05T15:42:50.563Z,986.901
2022-11-05T15:44:50.156Z,986.937
2022-11-05T15:46:50.120Z,986.970
2022-11-05T15:48:50.538Z,986.974
2022-11-05T15:50:50.112Z,986.963
2022-11-05T15:52:50.546Z,986.949
2022-11-05T15:54:49.947Z,986.964
2022-11-05T15:56:50.683Z,986.961
2022-11-05T15:58:50.073Z,986.989
2022-11-05T16:00:50.437Z,986.995
2022-11-05T16:02:50.101Z,986.993
2022-11-05T16:04:50.446Z,986.975
2022-11-05T16:06:50.303Z,986.985
2022-11-05T16:08:49.849Z,986.993
2022-11-05T16:10:50.308Z,986.998
2022-11-05T16:12:50.787Z,987.006
2022-11-05T16:14:50.172Z,987.016
2022-11-05T16:16:49.874Z,987.011
2022-11-05T16:18:50.237Z,987.014
2022-11-05T16:20:50.660Z,987.038
2022-11-05T16:22:50.113Z,987.035
2022-11-05T16:24:50.542Z,987.076
2022-11-05T16:27:03.720Z,987.077
2022-11-05T16:28:50.504Z,987.084
2022-11-05T16:30:49.979Z,987.150
2022-11-05T16:32:50.357Z,987.172
2022-11-05T16:34:50.472Z,987.203
2022-11-05T16:36:50.205Z,987.192
2022-11-05T16:38:50.713Z,987.272
2022-11-05T16:40:50.087Z,987.239
2022-11-05T16:42:50.552Z,987.253
2022-11-05T16:44:49.949Z,987.293
2022-11-05T16:46:49.881Z,987.300
2022-11-05T16:48:50.242Z,987.395
2022-11-05T16:50:49.868Z,987.416
2022-11-05T16:52:50.258Z,987.419
2022-11-05T16:54:50.794Z,987.472
2022-11-05T16:56:50.546Z,987.447
2022-11-05T16:58:50.093Z,987.491
2022-11-05T17:00:50.560Z,987.512
2022-11-05T17:02:50.540Z,987.565
2022-11-05T17:04:49.895Z,987.563
2022-11-05T17:06:50.639Z,987.611
2022-11-05T17:08:50.089Z,987.636
2022-11-05T17:10:50.603Z,987.642
2022-11-05T17:12:50.158Z,987.686
2022-11-05T17:14:50.765Z,987.698
2022-11-05T17:16:50.433Z,987.699
2022-11-05T17:18:50.084Z,987.719
2022-11-05T17:20:50.533Z,987.740
2022-11-05T17:22:50.023Z,987.740
2022-11-05T17:24:50.562Z,987.768
2022-11-05T17:26:50.405Z,987.785
2022-11-05T17:28:49.857Z,987.772
2022-11-05T17:30:53.465Z,987.778
2022-11-05T17:32:50.147Z,987.772
2022-11-05T17:34:50.412Z,987.741
2022-11-05T17:36:50.274Z,987.750
2022-11-05T17:38:50.659Z,987.765
2022-11-05T17:40:50.022Z,987.722
2022-11-05T17:42:50.610Z,987.739
2022-11-05T17:44:50.126Z,987.766
2022-11-05T17:46:49.882Z,987.834
2022-11-05T17:48:50.289Z,987.791
2022-11-05T17:50:50.783Z,987.852
2022-11-05T17:52:50.309Z,987.844
2022-11-05T17:54:49.844Z,987.873
2022-11-05T17:56:50.586Z,987.886
2022-11-05T17:58:50.037Z,987.932
2022-11-05T18:00:50.603Z,987.952
2022-11-05T18:02:50.361Z,987.977
2022-11-05T18:04:50.729Z,987.970
2022-11-05T18:06:50.555Z,988.037
2022-11-05T18:08:50.177Z,988.069
2022-11-05T18:10:50.536Z,988.095
2022-11-05T18:12:50.190Z,988.095
2022-11-05T18:14:50.656Z,988.057
2022-11-05T18:16:50.502Z,988.057
2022-11-05T18:18:49.891Z,988.057
2022-11-05T18:22:50.128Z,988.071
2022-11-05T18:24:50.679Z,988.090
2022-11-05T18:26:50.645Z,988.072
2022-11-05T18:28:50.032Z,988.103
2022-11-05T18:30:50.440Z,988.081
2022-11-05T18:32:49.983Z,988.081
2022-11-05T18:34:49.816Z,988.047
2022-11-05T18:36:56.910Z,988.036
2022-11-05T18:38:50.495Z,988.046
2022-11-05T18:40:49.955Z,988.033
2022-11-05T18:42:50.339Z,988.055
2022-11-05T18:44:50.689Z,988.035
2022-11-05T18:46:59.081Z,988.017
2022-11-05T18:48:50.590Z,987.961
2022-11-05T18:50:50.217Z,987.959
2022-11-05T18:52:49.832Z,987.997
2022-11-05T18:54:50.350Z,988.010
2022-11-05T18:56:50.157Z,987.980
2022-11-05T18:59:03.276Z,988.020
2022-11-05T19:00:49.944Z,988.026
2022-11-05T19:02:51.002Z,988.051
2022-11-05T19:05:29.868Z,988.054
2022-11-05T19:06:50.058Z,988.052
2022-11-05T19:08:50.573Z,988.138
2022-11-05T19:10:50.147Z,988.157
2022-11-05T19:12:50.570Z,988.161
2022-11-05T19:14:50.107Z,988.137
2022-11-05T19:16:49.931Z,988.167
2022-11-05T19:18:50.406Z,988.185
2022-11-05T19:20:49.924Z,988.270
2022-11-05T19:22:50.491Z,988.259
2022-11-05T19:24:50.043Z,988.238
2022-11-05T19:26:49.856Z,988.277
2022-11-05T19:28:50.478Z,988.246
2022-11-05T19:30:50.050Z,988.246
2022-11-05T19:32:50.479Z,988.183
2022-11-05T19:34:50.480Z,988.243
2022-11-05T19:36:50.355Z,988.265
2022-11-05T19:38:49.922Z,988.266
2022-11-05T19:40:50.331Z,988.259
2022-11-05T19:42:49.834Z,988.240
2022-11-05T19:44:50.377Z,988.252
2022-11-05T19:46:50.294Z,988.244
2022-11-05T19:48:49.895Z,988.248
2022-11-05T19:50:50.524Z,988.227
2022-11-05T19:52:50.310Z,988.255
2022-11-05T19:54:50.675Z,988.308
2022-11-05T19:56:50.574Z,988.365
2022-11-05T19:58:49.963Z,988.364
2022-11-05T20:00:50.492Z,988.364
2022-11-05T20:02:50.593Z,988.444
2022-11-05T20:04:49.930Z,988.516
2022-11-05T20:06:50.818Z,988.556
2022-11-05T20:09:22.368Z,988.540
2022-11-05T20:10:50.168Z,988.564
2022-11-05T20:12:49.869Z,988.572
2022-11-05T20:14:50.377Z,988.570
2022-11-05T20:16:50.317Z,988.589
2022-11-05T20:18:49.819Z,988.633
2022-11-05T20:20:50.321Z,988.680
2022-11-05T20:22:49.971Z,988.651
2022-11-05T20:24:50.449Z,988.606
2022-11-05T20:26:50.395Z,988.639
2022-11-05T20:28:49.955Z,988.624
2022-11-05T20:30:50.540Z,988.652
2022-11-05T20:32:50.141Z,988.634
2022-11-05T20:34:50.389Z,988.650
2022-11-05T20:36:50.123Z,988.655
2022-11-05T20:38:50.733Z,988.653
2022-11-05T20:40:50.303Z,988.681
2022-11-05T20:42:50.748Z,988.672
2022-11-05T20:44:50.232Z,988.653
2022-11-05T20:46:50.098Z,988.689
2022-11-05T20:48:50.613Z,988.689
2022-11-05T20:50:50.147Z,988.661
2022-11-05T20:52:50.730Z,988.660
2022-11-05T20:54:50.332Z,988.685
2022-11-05T20:56:50.301Z,988.689
2022-11-05T20:58:50.759Z,988.699
2022-11-05T21:00:50.338Z,988.776
2022-11-05T21:02:50.372Z,988.826
2022-11-05T21:04:49.900Z,988.830
2022-11-05T21:06:49.850Z,988.829
2022-11-05T21:08:50.515Z,988.894
2022-11-05T21:10:51.788Z,988.897
2022-11-05T21:12:50.309Z,988.910
2022-11-05T21:14:49.820Z,988.887
2022-11-05T21:16:49.874Z,988.835
2022-11-05T21:18:50.243Z,988.863
2022-11-05T21:20:50.701Z,988.887
2022-11-05T21:22:50.629Z,988.894
2022-11-05T21:24:50.118Z,988.889
2022-11-05T21:26:50.109Z,988.905
2022-11-05T21:28:50.757Z,988.912
2022-11-05T21:30:50.494Z,988.901
2022-11-05T21:32:50.088Z,988.879
2022-11-05T21:34:50.229Z,988.885
2022-11-05T21:36:50.217Z,988.832
2022-11-05T21:38:49.920Z,988.854
2022-11-05T21:40:50.379Z,988.833
2022-11-05T21:42:49.979Z,988.856
2022-11-05T21:44:50.423Z,988.841
2022-11-05T21:46:50.296Z,988.894
2022-11-05T21:48:49.996Z,988.919
2022-11-05T21:50:50.613Z,988.944
2022-11-05T21:52:50.237Z,988.888
2022-11-05T21:54:50.784Z,988.871
2022-11-05T21:56:49.830Z,988.848
2022-11-05T21:58:50.334Z,988.762
2022-11-05T22:00:49.886Z,988.766
2022-11-05T22:02:51.105Z,988.735
2022-11-05T22:04:49.896Z,988.735
2022-11-05T22:06:50.800Z,988.699
2022-11-05T22:08:50.443Z,988.675
2022-11-05T22:10:49.932Z,988.690
2022-11-05T22:12:50.605Z,988.711
2022-11-05T22:14:50.129Z,988.654
2022-11-05T22:16:50.053Z,988.748
2022-11-05T22:18:50.135Z,988.752
2022-11-05T22:20:50.671Z,988.784
2022-11-05T22:22:50.095Z,988.781
2022-11-05T22:24:50.638Z,988.809
2022-11-05T22:26:50.493Z,988.807
2022-11-05T22:28:49.955Z,988.843
2022-11-05T22:30:50.549Z,988.817
2022-11-05T22:32:49.966Z,988.805
2022-11-05T22:34:49.966Z,988.785
2022-11-05T22:36:50.644Z,988.843
2022-11-05T22:38:50.110Z,988.820
2022-11-05T22:40:50.517Z,988.830
2022-11-05T22:42:50.005Z,988.819
2022-11-05T22:44:50.400Z,988.794
2022-11-05T22:46:50.155Z,988.815
2022-11-05T22:48:50.638Z,988.815
2022-11-05T22:50:50.554Z,988.815
2022-11-05T22:52:50.146Z,988.670
2022-11-05T22:54:50.754Z,988.687
2022-11-05T22:56:50.614Z,988.720
2022-11-05T22:58:50.246Z,988.720
2022-11-05T23:00:50.779Z,988.737
2022-11-05T23:02:50.885Z,988.719
2022-11-05T23:04:50.523Z,988.713
2022-11-05T23:06:50.281Z,988.763
2022-11-05T23:08:50.774Z,988.722
2022-11-05T23:10:50.394Z,988.767
2022-11-05T23:12:49.855Z,988.721
2022-11-05T23:14:50.369Z,988.683
2022-11-05T23:16:50.260Z,988.708
2022-11-05T23:18:50.762Z,988.700
2022-11-05T23:20:50.230Z,988.709
2022-11-05T23:22:49.875Z,988.709
2022-11-05T23:24:50.371Z,988.715
2022-11-05T23:26:50.164Z,988.732
2022-11-05T23:28:50.656Z,988.704
2022-11-05T23:30:50.227Z,988.692
2022-11-05T23:32:50.680Z,988.682
2022-11-05T23:34:50.453Z,988.694
2022-11-05T23:36:50.162Z,988.671
2022-11-05T23:38:50.718Z,988.696
2022-11-05T23:40:50.160Z,988.661
2022-11-05T23:42:50.699Z,988.693
2022-11-05T23:44:50.105Z,988.662
2022-11-05T23:46:50.791Z,988.678
2022-11-05T23:48:50.355Z,988.660
2022-11-05T23:50:50.745Z,988.658
2022-11-05T23:52:50.199Z,988.643
2022-11-05T23:54:50.586Z,988.618
2022-11-05T23:56:50.348Z,988.635
2022-11-05T23:58:50.767Z,988.650
